Time;durP1;ratioP1;P1;durP2;ratioP2;P2;SDS_P1;SDS_P2;PMS_P1;PMS_P2;Temp;Humidity;BMP_temperature;BMP_pressure;BME280_temperature;BME280_humidity;BME280_pressure;Samples;Min_cycle;Max_cycle;Signal;HPM_P1;HPM_P2
2021/09/20 00:00:33;;;;;;;;;0.00;0.00;;;;;16.00;70.67;101408.88;5049602;28;45325;-83
2021/09/20 00:02:59;;;;;;;;;0.00;0.00;;;;;16.00;70.86;101418.50;5069781;28;45314;-84
2021/09/20 00:05:24;;;;;;;;;0.00;0.00;;;;;15.90;71.24;101428.97;5069445;28;45687;-84
2021/09/20 00:07:50;;;;;;;;;0.00;0.00;;;;;15.77;71.55;101411.53;5067755;28;47161;-85
2021/09/20 00:10:15;;;;;;;;;0.00;0.00;;;;;15.83;71.77;101406.25;5051261;28;45343;-84
2021/09/20 00:12:41;;;;;;;;;0.00;0.00;;;;;15.83;72.09;101430.75;5054651;28;45466;-81
2021/09/20 00:15:08;;;;;;;;;0.00;0.00;;;;;15.64;72.82;101411.56;5066960;28;45513;-79
2021/09/20 00:17:33;;;;;;;;;0.00;0.00;;;;;15.53;73.20;101411.56;5066421;28;45426;-79
2021/09/20 00:19:59;;;;;;;;;0.25;0.00;;;;;15.67;73.51;101439.53;5067438;28;45234;-79
2021/09/20 00:22:24;;;;;;;;;0.00;0.00;;;;;15.78;74.22;101429.03;5067048;28;45187;-79
2021/09/20 00:24:49;;;;;;;;;1.00;0.00;;;;;15.91;73.49;101428.13;5067690;28;45452;-80
2021/09/20 00:27:15;;;;;;;;;0.00;0.00;;;;;15.78;73.10;101402.78;5063363;28;47252;-83
2021/09/20 00:29:40;;;;;;;;;0.00;0.00;;;;;15.87;72.94;101438.63;5065938;28;45421;-84
2021/09/20 00:32:06;;;;;;;;;0.00;0.00;;;;;15.44;73.45;101362.59;5066766;28;45353;-84
2021/09/20 00:34:37;;;;;;;;;0.00;0.00;;;;;15.88;73.21;101422.88;5067742;28;45570;-84
2021/09/20 00:37:03;;;;;;;;;0.00;0.00;;;;;15.93;73.18;101433.38;5071778;28;46866;-80
2021/09/20 00:39:28;;;;;;;;;0.00;0.00;;;;;15.96;73.00;101439.50;5070983;28;46142;-80
2021/09/20 00:41:54;;;;;;;;;0.00;0.00;;;;;15.79;72.68;101401.88;5072914;28;44961;-86
2021/09/20 00:44:19;;;;;;;;;0.00;0.00;;;;;15.68;72.86;101381.78;5070190;28;47155;-85
2021/09/20 00:46:48;;;;;;;;;0.00;0.00;;;;;15.41;73.07;101341.63;5067816;28;47384;-86
2021/09/20 00:49:14;;;;;;;;;0.00;0.00;;;;;15.22;72.66;101306.66;5069725;28;45377;-82
2021/09/20 00:51:39;;;;;;;;;0.00;0.00;;;;;15.14;72.44;101287.47;5067834;28;45348;-82
2021/09/20 00:54:05;;;;;;;;;0.00;0.00;;;;;15.46;72.92;101338.97;5067873;28;45514;-82
2021/09/20 00:56:31;;;;;;;;;0.00;0.00;;;;;15.87;72.08;101413.28;5067199;28;45326;-82
2021/09/20 00:58:56;;;;;;;;;0.00;0.00;;;;;14.90;72.33;101278.75;5067800;28;45278;-82
2021/09/20 01:01:24;;;;;;;;;0.00;0.00;;;;;15.34;72.71;101368.72;5069411;28;45207;-84
2021/09/20 01:03:49;;;;;;;;;0.25;0.00;;;;;15.35;73.08;101382.72;5069519;28;45485;-82
2021/09/20 01:06:15;;;;;;;;;0.00;0.00;;;;;14.08;72.85;101207.09;5067009;28;45539;-83
2021/09/20 01:08:40;;;;;;;;;0.00;0.00;;;;;14.99;73.20;101357.41;5066324;28;45414;-82
2021/09/20 01:11:09;;;;;;;;;0.00;0.00;;;;;13.96;73.76;101180.91;5067430;28;45237;-80
2021/09/20 01:13:34;;;;;;;;;0.00;0.00;;;;;14.93;73.46;101357.41;5066921;28;45320;-83
2021/09/20 01:15:59;;;;;;;;;0.00;0.00;;;;;15.06;73.75;101374.88;5066805;28;46343;-81
2021/09/20 01:18:25;;;;;;;;;0.00;0.00;;;;;15.39;74.21;101413.31;5074409;28;45260;-80
2021/09/20 01:20:50;;;;;;;;;0.00;0.00;;;;;15.30;73.50;101396.72;5072874;28;45203;-81
2021/09/20 01:23:18;;;;;;;;;0.00;0.00;;;;;15.44;73.66;101414.22;5069412;28;45197;-84
2021/09/20 01:25:43;;;;;;;;;0.00;0.00;;;;;15.12;73.71;101358.25;5067352;28;45580;-82
2021/09/20 01:28:09;;;;;;;;;0.00;0.00;;;;;15.22;73.68;101366.13;5061192;28;45226;-86
2021/09/20 01:30:34;;;;;;;;;0.00;0.00;;;;;15.12;73.86;101347.78;5072595;28;45427;-84
2021/09/20 01:33:00;;;;;;;;;0.00;0.00;;;;;15.57;73.73;101413.31;5071807;28;45601;-88
2021/09/20 01:35:27;;;;;;;;;0.00;0.00;;;;;15.33;73.93;101365.25;5051853;28;47376;-86
2021/09/20 01:37:55;;;;;;;;;0.00;0.00;;;;;15.05;73.74;101318.09;5055190;28;45619;-89
2021/09/20 01:40:21;;;;;;;;;0.00;0.00;;;;;15.44;73.33;101369.63;5067272;28;45400;-87
2021/09/20 01:42:47;;;;;;;;;0.00;0.00;;;;;15.55;73.87;101394.06;5068871;28;45228;-87
2021/09/20 01:45:14;;;;;;;;;0.00;0.00;;;;;15.28;73.50;101326.81;5070767;28;47137;-88
2021/09/20 01:47:40;;;;;;;;;0.00;0.00;;;;;15.40;73.75;101365.22;5070071;28;45253;-87
2021/09/20 01:50:07;;;;;;;;;0.00;0.00;;;;;15.74;74.16;101409.78;5066949;28;45364;-88
2021/09/20 01:52:33;;;;;;;;;0.00;0.00;;;;;15.54;73.78;101354.72;5066650;28;45503;-89
2021/09/20 01:54:59;;;;;;;;;0.00;0.00;;;;;15.83;73.69;101393.13;5065234;28;48515;-86
2021/09/20 01:57:24;;;;;;;;;0.00;0.00;;;;;15.62;73.53;101334.56;5067707;28;45388;-86
2021/09/20 01:59:51;;;;;;;;;0.00;0.00;;;;;15.90;73.60;101370.38;5066022;28;45061;-84
2021/09/20 02:02:16;;;;;;;;;0.00;0.00;;;;;15.68;72.66;101326.69;5066246;28;46337;-84
2021/09/20 02:04:41;;;;;;;;;0.00;0.00;;;;;16.12;72.96;101394.84;5067240;28;47441;-81
2021/09/20 02:07:07;;;;;;;;;0.00;0.00;;;;;15.90;72.23;101360.72;5068044;28;45519;-82
2021/09/20 02:09:33;;;;;;;;;0.00;0.00;;;;;16.03;72.66;101395.75;5070390;28;45220;-81
2021/09/20 02:11:58;;;;;;;;;0.00;0.00;;;;;15.85;72.47;101383.50;5066261;28;45232;-86
2021/09/20 02:14:23;;;;;;;;;0.00;0.00;;;;;15.70;72.49;101379.16;5063728;28;47274;-85
2021/09/20 02:16:49;;;;;;;;;0.00;0.00;;;;;15.61;72.94;101376.56;5065774;28;45280;-86
2021/09/20 02:19:14;;;;;;;;;0.00;0.00;;;;;15.33;72.98;101319.78;5049522;28;45285;-84
2021/09/20 02:21:40;;;;;;;;;0.00;0.00;;;;;15.63;73.18;101366.94;5053596;28;45336;-81
2021/09/20 02:24:05;;;;;;;;;0.00;0.00;;;;;15.43;73.09;101337.25;5062936;28;46225;-82
2021/09/20 02:26:30;;;;;;;;;0.00;0.00;;;;;15.68;73.41;101379.16;5047735;28;45360;-81
2021/09/20 02:28:56;;;;;;;;;0.00;0.00;;;;;15.65;73.28;101363.44;5059675;28;45353;-87
2021/09/20 02:31:21;;;;;;;;;0.00;0.00;;;;;15.57;72.87;101339.84;5052031;28;45443;-85
2021/09/20 02:33:47;;;;;;;;;0.00;0.00;;;;;15.49;73.08;101325.88;5039170;28;47119;-85
2021/09/20 02:36:13;;;;;;;;;0.00;0.00;;;;;15.61;73.18;101363.44;5069519;28;45533;-84
2021/09/20 02:38:39;;;;;;;;;0.00;0.00;;;;;15.36;73.59;101324.13;5050779;28;45298;-80
2021/09/20 02:41:05;;;;;;;;;0.00;0.00;;;;;15.54;73.19;101350.34;5053407;28;45133;-80
2021/09/20 02:43:31;;;;;;;;;0.00;0.00;;;;;15.63;73.52;101378.31;5071785;28;45416;-81
2021/09/20 02:45:57;;;;;;;;;0.00;0.00;;;;;15.38;73.63;101357.38;5055312;28;45648;-85
2021/09/20 02:48:22;;;;;;;;;0.00;0.00;;;;;15.14;74.01;101318.94;5071084;28;45426;-84
2021/09/20 02:50:48;;;;;;;;;0.00;0.00;;;;;15.37;73.83;101346.91;5073192;28;45447;-83
2021/09/20 02:53:13;;;;;;;;;0.00;0.00;;;;;15.63;73.78;101380.06;5052743;28;47266;-84
2021/09/20 02:55:39;;;;;;;;;0.00;0.00;;;;;15.50;74.11;101360.84;5055982;28;45402;-81
2021/09/20 02:58:04;;;;;;;;;0.00;0.00;;;;;15.57;74.30;101380.94;5062029;28;45273;-80
2021/09/20 03:00:30;;;;;;;;;0.00;0.00;;;;;15.53;74.35;101363.47;5075085;28;44769;-83
2021/09/20 03:02:55;;;;;;;;;0.00;0.00;;;;;15.49;74.59;101346.00;5080465;28;45424;-83
2021/09/20 03:05:20;;;;;;;;;0.00;0.00;;;;;15.78;73.95;101384.41;5071538;28;45419;-85
2021/09/20 03:07:46;;;;;;;;;0.00;0.00;;;;;15.21;73.87;101268.22;5071801;28;45425;-84
2021/09/20 03:10:12;;;;;;;;;0.00;0.00;;;;;15.77;73.74;101359.03;5055970;28;45320;-84
2021/09/20 03:12:37;;;;;;;;;0.00;0.00;;;;;15.75;73.64;101380.03;5075921;28;46048;-83
2021/09/20 03:15:03;;;;;;;;;0.25;0.00;;;;;15.46;74.17;101357.34;5069509;28;46312;-84
2021/09/20 03:17:29;;;;;;;;;0.00;0.00;;;;;15.45;74.23;101342.50;5089091;28;44703;-83
2021/09/20 03:19:54;;;;;;;;;0.00;0.00;;;;;15.10;74.01;101277.88;5074604;28;45343;-84
2021/09/20 03:22:20;;;;;;;;;0.00;0.00;;;;;15.64;74.20;101382.69;5048547;28;48341;-83
2021/09/20 03:24:45;;;;;;;;;0.00;0.00;;;;;15.33;74.39;101330.28;5062534;28;45435;-84
2021/09/20 03:27:12;;;;;;;;;0.00;0.00;;;;;15.55;74.58;101357.34;5069289;28;45241;-84
2021/09/20 03:29:37;;;;;;;;;0.00;0.00;;;;;15.43;74.24;101337.25;5063070;28;45285;-86
2021/09/20 03:32:03;;;;;;;;;0.00;0.00;;;;;15.52;74.25;101338.09;5067083;28;47359;-84
2021/09/20 03:34:28;;;;;;;;;0.00;0.00;;;;;15.79;73.93;101387.03;5067495;28;45664;-84
2021/09/20 03:36:54;;;;;;;;;0.00;0.00;;;;;15.71;74.29;101375.66;5066591;28;45172;-83
2021/09/20 03:39:19;;;;;;;;;0.00;0.00;;;;;15.64;74.68;101380.06;5084629;28;45196;-84
2021/09/20 03:41:44;;;;;;;;;0.00;0.00;;;;;15.68;74.56;101378.31;5082091;28;45354;-84
2021/09/20 03:44:10;;;;;;;;;0.00;0.00;;;;;15.27;74.32;101322.41;5048759;28;46137;-84
2021/09/20 03:46:35;;;;;;;;;0.00;0.00;;;;;15.73;75.25;101389.66;5066935;28;45464;-84
2021/09/20 03:49:02;;;;;;;;;0.00;0.00;;;;;15.47;74.40;101339.88;5064567;28;45320;-84
2021/09/20 03:51:28;;;;;;;;;0.00;0.00;;;;;15.54;74.90;101360.84;5040702;28;47552;-84
2021/09/20 03:53:53;;;;;;;;;0.00;0.00;;;;;15.53;74.33;101347.72;5047045;28;45448;-84
2021/09/20 03:56:18;;;;;;;;;0.00;0.00;;;;;15.24;74.36;101302.31;5064449;28;46240;-84
2021/09/20 03:58:44;;;;;;;;;0.00;0.00;;;;;15.76;74.37;101378.28;5062136;28;45308;-84
2021/09/20 04:01:09;;;;;;;;;0.00;0.00;;;;;15.54;74.91;101331.09;5075549;28;47005;-86
2021/09/20 04:03:34;;;;;;;;;0.00;0.00;;;;;15.51;74.46;101332.00;5058891;28;45453;-85
2021/09/20 04:06:00;;;;;;;;;0.00;0.00;;;;;15.56;74.82;101342.47;5065979;28;45925;-88
2021/09/20 04:08:29;;;;;;;;;0.00;0.00;;;;;15.74;74.72;101388.78;5069597;28;45157;-83
2021/09/20 04:10:56;;;;;;;;;0.50;0.50;;;;;15.70;74.88;101373.91;5063629;28;46479;-86
2021/09/20 04:13:22;;;;;;;;;0.00;0.00;;;;;15.80;74.88;101390.50;5075800;28;45248;-79
2021/09/20 04:15:53;;;;;;;;;0.00;0.00;;;;;15.67;74.24;101364.31;5064761;28;45404;-79
2021/09/20 04:18:23;;;;;;;;;0.00;0.00;;;;;15.64;74.85;101359.06;5046394;28;45247;-78
2021/09/20 04:20:49;;;;;;;;;0.00;0.00;;;;;15.65;74.88;101366.06;5066756;28;46142;-85
2021/09/20 04:23:15;;;;;;;;;0.00;0.00;;;;;15.76;74.81;101376.53;5045406;28;45680;-84
2021/09/20 04:25:41;;;;;;;;;0.00;0.00;;;;;15.77;74.44;101373.03;5064742;28;45240;-86
2021/09/20 04:28:06;;;;;;;;;0.00;0.00;;;;;15.77;74.66;101390.53;5046977;28;45619;-85
2021/09/20 04:30:32;;;;;;;;;0.00;0.00;;;;;15.75;74.65;101389.66;5064765;28;46456;-84
2021/09/20 04:32:57;;;;;;;;;0.00;0.00;;;;;15.12;74.79;101281.34;5064856;28;45272;-85
2021/09/20 04:35:22;;;;;;;;;0.00;0.00;;;;;15.68;75.00;101366.03;5046752;28;45319;-85
2021/09/20 04:37:48;;;;;;;;;0.00;0.00;;;;;15.85;74.61;101394.00;5046774;28;45359;-84
2021/09/20 04:40:13;;;;;;;;;0.00;0.00;;;;;15.58;74.82;101349.47;5066922;28;46337;-81
2021/09/20 04:42:39;;;;;;;;;0.00;0.00;;;;;15.70;74.75;101364.31;5064783;28;45243;-87
2021/09/20 04:45:05;;;;;;;;;0.00;0.00;;;;;15.82;74.65;101373.00;5048840;28;45256;-79
2021/09/20 04:47:30;;;;;;;;;0.00;0.00;;;;;15.60;74.59;101340.72;5072350;28;45316;-83
2021/09/20 04:49:55;;;;;;;;;1.00;0.00;;;;;15.78;74.72;101374.78;5066856;28;46310;-84
2021/09/20 04:52:21;;;;;;;;;0.00;0.00;;;;;15.74;74.51;101370.41;5048747;28;45690;-86
2021/09/20 04:54:46;;;;;;;;;0.00;0.00;;;;;14.81;74.76;101215.00;5069104;28;45342;-88
2021/09/20 04:57:11;;;;;;;;;0.00;0.00;;;;;16.05;75.24;101398.38;5047910;28;45673;-88
2021/09/20 04:59:37;;;;;;;;;0.00;0.00;;;;;15.90;74.56;101375.63;5049711;28;48455;-88
2021/09/20 05:02:02;;;;;;;;;0.00;0.00;;;;;15.26;74.73;101284.84;5051352;28;45505;-86
2021/09/20 05:04:28;;;;;;;;;0.75;0.00;;;;;15.95;74.41;101406.22;5058285;28;45356;-84
2021/09/20 05:06:53;;;;;;;;;0.00;0.00;;;;;15.82;74.63;101375.63;5066631;28;45710;-85
2021/09/20 05:09:18;;;;;;;;;0.00;0.00;;;;;16.01;74.37;101394.84;5065893;28;45459;-82
2021/09/20 05:11:49;;;;;;;;;0.00;0.00;;;;;15.87;74.67;101373.88;5061938;28;45351;-87
2021/09/20 05:14:30;;;;;;;;;0.00;0.00;;;;;16.16;74.82;101401.81;5067783;28;45717;-84
2021/09/20 05:17:16;;;;;;;;;1.00;1.00;;;;;16.26;74.83;101407.88;5046089;28;45280;-84
2021/09/20 05:19:41;;;;;;;;;0.00;0.00;;;;;16.23;74.62;101409.66;5047591;28;46892;-86
2021/09/20 05:22:07;;;;;;;;;0.00;0.00;;;;;15.85;74.79;101338.88;5062410;28;45331;-84
2021/09/20 05:24:32;;;;;;;;;0.00;0.00;;;;;15.61;74.60;101293.47;5054231;28;45228;-85
2021/09/20 05:27:04;;;;;;;;;0.00;0.00;;;;;15.04;74.12;101206.19;5045175;28;45590;-80
2021/09/20 05:29:29;;;;;;;;;0.00;0.00;;;;;16.31;73.77;101419.25;5067527;28;45476;-78
2021/09/20 05:31:55;;;;;;;;;0.00;0.00;;;;;16.35;73.76;101430.63;5064628;28;45432;-83
2021/09/20 05:34:22;;;;;;;;;0.00;0.00;;;;;16.28;73.85;101423.66;5066822;28;45363;-82
2021/09/20 05:36:48;;;;;;;;;0.00;0.00;;;;;16.30;73.81;101422.75;5026569;28;45764;-82
2021/09/20 05:39:14;;;;;;;;;0.00;0.00;;;;;16.33;74.42;101422.75;5038634;28;47154;-80
2021/09/20 05:41:39;;;;;;;;;0.00;0.00;;;;;16.36;74.21;101415.72;5051990;28;45241;-82
2021/09/20 05:44:04;;;;;;;;;1.00;1.00;;;;;16.26;73.93;101388.66;5045547;28;45240;-81
2021/09/20 05:46:30;;;;;;;;;0.00;0.00;;;;;16.34;73.78;101405.22;5044032;28;45476;-81
2021/09/20 05:48:55;;;;;;;;;1.00;0.00;;;;;16.35;73.62;101399.09;5046224;28;46285;-80
2021/09/20 05:51:20;;;;;;;;;0.00;0.00;;;;;16.53;73.56;101431.41;5046961;28;45308;-81
2021/09/20 05:53:46;;;;;;;;;0.00;0.00;;;;;16.56;73.55;101424.38;5026913;28;45355;-82
2021/09/20 05:56:13;;;;;;;;;0.00;0.00;;;;;16.54;73.81;101423.50;5045643;28;45612;-81
2021/09/20 05:58:39;;;;;;;;;0.00;0.00;;;;;16.37;73.18;101413.09;5045681;28;47405;-80
2021/09/20 06:01:04;;;;;;;;;0.00;0.00;;;;;16.14;73.15;101405.34;5054657;28;45259;-80
2021/09/20 06:03:30;;;;;;;;;0.00;0.00;;;;;16.20;73.58;101410.53;5057584;28;45512;-80
2021/09/20 06:05:55;;;;;;;;;0.00;0.00;;;;;16.17;73.56;101406.16;5072990;28;45379;-79
2021/09/20 06:08:21;;;;;;;;;0.00;0.00;;;;;16.15;73.46;101409.69;5046468;28;47187;-79
2021/09/20 06:10:46;;;;;;;;;0.00;0.00;;;;;16.11;73.91;101421.09;5066707;28;44849;-82
2021/09/20 06:13:11;;;;;;;;;0.25;0.25;;;;;16.09;74.09;101418.47;5069043;28;45370;-79
2021/09/20 06:15:38;;;;;;;;;1.00;0.00;;;;;15.91;74.18;101395.72;5084611;27;44810;-80
2021/09/20 06:18:04;;;;;;;;;0.00;0.00;;;;;16.19;74.58;101438.56;5083580;28;47368;-79
2021/09/20 06:20:30;;;;;;;;;0.75;0.00;;;;;16.01;74.20;101431.63;5083621;28;45490;-79
2021/09/20 06:22:56;;;;;;;;;1.00;1.00;;;;;16.05;74.84;101419.38;5081075;28;44841;-79
2021/09/20 06:25:23;;;;;;;;;0.00;0.00;;;;;16.01;74.29;101420.22;5081397;28;45088;-79
2021/09/20 06:27:49;;;;;;;;;0.00;0.00;;;;;16.16;74.84;101456.97;5071372;28;47110;-80
2021/09/20 06:30:14;;;;;;;;;0.00;0.00;;;;;15.86;75.05;101395.75;5072905;28;44751;-80
2021/09/20 06:32:40;;;;;;;;;0.00;0.00;;;;;16.25;75.47;101456.06;5067827;28;45930;-79
2021/09/20 06:35:07;;;;;;;;;0.00;0.00;;;;;16.06;74.97;101416.75;5066412;28;45499;-79
2021/09/20 06:37:32;;;;;;;;;0.50;0.50;;;;;16.12;75.31;101446.47;5069059;28;46343;-80
2021/09/20 06:39:58;;;;;;;;;0.00;0.00;;;;;15.98;75.51;101441.28;5064530;28;44964;-79
2021/09/20 06:42:23;;;;;;;;;1.00;0.00;;;;;16.06;75.68;101457.88;5066530;28;45238;-79
2021/09/20 06:44:51;;;;;;;;;0.00;0.00;;;;;16.00;75.79;101444.75;5053805;28;45206;-80
2021/09/20 06:47:21;;;;;;;;;0.00;0.00;;;;;16.05;75.66;101435.97;5048530;28;47185;-79
2021/09/20 06:49:47;;;;;;;;;0.75;0.75;;;;;16.09;75.58;101444.75;5057646;28;45489;-78
2021/09/20 06:52:13;;;;;;;;;0.25;0.25;;;;;16.18;75.81;101462.22;5071787;28;45483;-79
2021/09/20 06:54:38;;;;;;;;;0.00;0.00;;;;;16.30;75.49;101477.91;5070465;28;45374;-77
2021/09/20 06:57:04;;;;;;;;;0.00;0.00;;;;;16.28;75.38;101481.44;5050094;28;46126;-79
2021/09/20 06:59:29;;;;;;;;;0.00;0.00;;;;;16.31;75.27;101478.81;5046191;28;45253;-78
2021/09/20 07:01:55;;;;;;;;;0.00;0.00;;;;;16.28;75.22;101484.94;5070921;28;45391;-81
2021/09/20 07:04:20;;;;;;;;;1.00;1.00;;;;;16.02;75.50;101437.75;5065841;27;45569;-79
2021/09/20 07:06:46;;;;;;;;;2.00;1.00;;;;;16.38;75.82;101485.78;5064911;28;45532;-81
2021/09/20 07:09:15;;;;;;;;;0.00;0.00;;;;;16.13;75.28;101443.84;5052782;28;45390;-78
2021/09/20 07:11:41;;;;;;;;;0.00;0.00;;;;;16.39;75.60;101486.66;5058399;28;45384;-80
2021/09/20 07:14:07;;;;;;;;;1.00;0.75;;;;;16.32;75.52;101483.16;5059684;28;45325;-79
2021/09/20 07:16:32;;;;;;;;;0.50;0.50;;;;;16.52;75.83;101498.00;5061090;28;46294;-79
2021/09/20 07:18:58;;;;;;;;;0.75;0.00;;;;;16.63;75.33;101497.97;5059313;28;45292;-80
2021/09/20 07:21:24;;;;;;;;;5.00;1.00;;;;;16.63;75.47;101479.56;5062649;28;45293;-81
2021/09/20 07:23:51;;;;;;;;;0.00;0.00;;;;;16.83;75.48;101503.09;5067764;28;45291;-81
2021/09/20 07:26:21;;;;;;;;;0.00;0.00;;;;;16.89;75.39;101496.94;5060948;28;47965;-80
2021/09/20 07:28:47;;;;;;;;;2.00;0.75;;;;;16.99;74.63;101503.91;5060523;28;45427;-79
2021/09/20 07:31:12;;;;;;;;;0.00;0.00;;;;;16.83;74.31;101479.44;5071801;28;44607;-80
2021/09/20 07:33:38;;;;;;;;;0.00;0.00;;;;;16.72;74.23;101498.78;5062700;28;45336;-79
2021/09/20 07:36:03;;;;;;;;;0.00;0.00;;;;;16.62;74.33;101491.81;5061388;28;47229;-81
2021/09/20 07:38:29;;;;;;;;;0.00;0.00;;;;;16.60;74.50;101493.56;5063789;28;45251;-80
2021/09/20 07:40:54;;;;;;;;;0.00;0.00;;;;;16.70;74.64;101494.41;5065063;28;45250;-80
2021/09/20 07:43:20;;;;;;;;;2.00;0.75;;;;;16.78;74.17;101512.78;5063238;28;45625;-79
2021/09/20 07:45:45;;;;;;;;;1.25;0.00;;;;;16.75;74.14;101510.19;5068301;28;46280;-80
2021/09/20 07:48:11;;;;;;;;;0.00;0.00;;;;;16.60;73.98;101490.94;5067364;28;45357;-80
2021/09/20 07:50:36;;;;;;;;;0.00;0.00;;;;;16.64;74.16;101511.09;5072239;28;45225;-79
2021/09/20 07:53:02;;;;;;;;;0.00;0.00;;;;;16.57;74.52;101501.50;5069100;28;45528;-80
2021/09/20 07:55:34;;;;;;;;;0.00;0.00;;;;;16.74;73.92;101511.03;5078213;28;46287;-79
2021/09/20 07:57:59;;;;;;;;;0.00;0.00;;;;;16.41;73.95;101449.00;5070969;28;45224;-82
2021/09/20 08:00:25;;;;;;;;;0.00;0.00;;;;;16.75;74.13;101483.88;5067454;28;45636;-80
2021/09/20 08:02:50;;;;;;;;;1.00;1.00;;;;;17.05;73.67;101513.50;5064966;28;45578;-80
2021/09/20 08:05:15;;;;;;;;;1.00;1.00;;;;;17.01;73.28;101478.47;5064564;28;46266;-79
2021/09/20 08:07:41;;;;;;;;;0.00;0.00;;;;;17.22;73.11;101502.91;5079434;28;45425;-80
2021/09/20 08:10:07;;;;;;;;;0.00;0.00;;;;;17.07;72.53;101478.47;5092052;27;45680;-80
2021/09/20 08:12:32;;;;;;;;;0.75;0.75;;;;;17.28;72.97;101502.00;5079465;28;44792;-78
2021/09/20 08:14:57;;;;;;;;;0.00;0.00;;;;;17.45;72.56;101505.38;5045743;28;47490;-79
2021/09/20 08:17:23;;;;;;;;;0.50;0.25;;;;;17.50;72.41;101512.34;5045512;28;45666;-80
2021/09/20 08:19:48;;;;;;;;;2.00;0.00;;;;;17.36;71.55;101500.16;5044887;28;45556;-80
2021/09/20 08:22:14;;;;;;;;;0.00;0.00;;;;;17.47;72.04;101505.34;5042277;28;45494;-78
2021/09/20 08:24:39;;;;;;;;;0.00;0.00;;;;;17.50;71.66;101509.72;5054924;28;45338;-77
2021/09/20 08:27:04;;;;;;;;;0.00;0.00;;;;;17.59;71.53;101522.81;5069570;28;45328;-78
2021/09/20 08:29:30;;;;;;;;;0.25;0.00;;;;;17.67;71.93;101546.44;5049026;28;45324;-78
2021/09/20 08:31:56;;;;;;;;;1.00;1.00;;;;;17.44;71.40;101493.09;5086800;28;45556;-79
2021/09/20 08:34:21;;;;;;;;;0.00;0.00;;;;;17.68;71.78;101529.75;5080585;28;46060;-79
2021/09/20 08:36:46;;;;;;;;;0.00;0.00;;;;;17.90;71.15;101554.16;5069958;28;45187;-80
2021/09/20 08:39:12;;;;;;;;;2.00;0.00;;;;;17.92;71.10;101548.88;5082743;28;45216;-80
2021/09/20 08:41:39;;;;;;;;;0.00;0.00;;;;;18.01;71.10;101543.50;5085994;28;44912;-80
2021/09/20 08:44:05;;;;;;;;;0.75;0.75;;;;;17.90;70.85;101537.47;5084883;28;46242;-80
2021/09/20 08:46:31;;;;;;;;;0.00;0.00;;;;;17.88;70.92;101526.94;5085068;28;45311;-80
2021/09/20 08:48:58;;;;;;;;;1.75;1.00;;;;;18.02;70.41;101552.28;5079606;28;45312;-80
2021/09/20 08:51:23;;;;;;;;;0.25;0.25;;;;;17.94;70.85;101550.59;5065816;28;45406;-80
2021/09/20 08:53:50;;;;;;;;;0.00;0.00;;;;;17.90;70.67;101543.59;5068025;28;46609;-80
2021/09/20 08:56:15;;;;;;;;;0.00;0.00;;;;;17.95;70.62;101551.47;5083640;28;44720;-79
2021/09/20 08:58:41;;;;;;;;;2.25;0.75;;;;;17.76;70.43;101527.91;5082473;28;44743;-79
2021/09/20 09:01:06;;;;;;;;;0.00;0.00;;;;;17.86;70.24;101553.28;5080932;28;45299;-79
2021/09/20 09:03:32;;;;;;;;;0.00;0.00;;;;;17.95;70.39;101560.22;5080782;28;45206;-79
2021/09/20 09:05:59;;;;;;;;;0.00;0.00;;;;;18.03;70.47;101564.56;5060409;28;45326;-80
2021/09/20 09:08:36;;;;;;;;;0.00;0.00;;;;;17.97;70.23;101533.88;5069458;28;44655;-79
2021/09/20 09:11:11;;;;;;;;;2.25;0.00;;;;;18.23;70.11;101554.72;5060636;28;45485;-80
2021/09/20 09:13:40;;;;;;;;;0.00;0.00;;;;;18.25;69.43;101545.94;5071198;28;45970;-79
2021/09/20 09:16:22;;;;;;;;;0.00;0.00;;;;;18.27;69.42;101566.13;5072466;28;45461;-78
2021/09/20 09:19:09;;;;;;;;;0.00;0.00;;;;;18.22;69.14;101570.53;5060466;28;44731;-78
2021/09/20 09:21:42;;;;;;;;;0.00;0.00;;;;;18.23;69.03;101553.88;5051066;28;45304;-78
2021/09/20 09:24:20;;;;;;;;;0.00;0.00;;;;;18.45;69.21;101577.34;5032760;28;47167;-77
2021/09/20 09:26:58;;;;;;;;;0.00;0.00;;;;;18.45;69.38;101567.69;5051195;28;45400;-77
2021/09/20 09:29:24;;;;;;;;;0.00;0.00;;;;;18.51;68.93;101563.22;5049862;28;45512;-77
2021/09/20 09:31:53;;;;;;;;;0.00;0.00;;;;;18.57;68.50;101576.34;5050429;28;45186;-77
2021/09/20 09:34:24;;;;;;;;;0.50;0.00;;;;;18.56;68.69;101582.50;5042905;28;48008;-77
2021/09/20 09:36:50;;;;;;;;;0.00;0.00;;;;;18.43;68.41;101568.56;5069379;28;45591;-78
2021/09/20 09:39:27;;;;;;;;;0.00;0.00;;;;;18.39;68.49;101577.41;5060764;28;45300;-77
2021/09/20 09:41:52;;;;;;;;;0.00;0.00;;;;;18.46;68.88;101590.50;5067811;28;45553;-78
2021/09/20 09:44:21;;;;;;;;;0.00;0.00;;;;;18.48;68.49;101598.41;5062183;28;46466;-78
2021/09/20 09:46:47;;;;;;;;;0.25;0.25;;;;;18.13;68.72;101542.53;5065563;28;45315;-78
2021/09/20 09:49:21;;;;;;;;;0.00;0.00;;;;;18.44;68.60;101571.19;5058627;28;45491;-77
2021/09/20 09:51:59;;;;;;;;;0.00;0.00;;;;;18.53;68.25;101595.72;5044611;28;45508;-78
2021/09/20 09:54:36;;;;;;;;;0.00;0.00;;;;;18.48;68.10;101590.50;5042692;28;46209;-77
2021/09/20 09:57:12;;;;;;;;;0.25;0.25;;;;;18.50;68.21;101596.63;5051970;28;45580;-78
2021/09/20 09:59:39;;;;;;;;;0.25;0.00;;;;;18.59;68.40;101590.38;5051127;28;45421;-78
2021/09/20 10:02:21;;;;;;;;;0.00;0.00;;;;;18.63;68.65;101600.00;5064686;28;45318;-78
2021/09/20 10:05:01;;;;;;;;;2.50;1.25;;;;;18.58;68.17;101600.06;5082023;28;45382;-78
2021/09/20 10:07:35;;;;;;;;;0.00;0.00;;;;;18.48;68.65;101595.78;5084377;28;45223;-77
2021/09/20 10:10:06;;;;;;;;;0.00;0.00;;;;;18.53;68.85;101599.22;5083493;28;45106;-78
2021/09/20 10:12:32;;;;;;;;;1.50;0.00;;;;;18.33;68.79;101573.97;5082582;28;45509;-78
2021/09/20 10:15:00;;;;;;;;;0.00;0.00;;;;;18.58;68.80;101596.53;5074796;28;46317;-77
2021/09/20 10:17:28;;;;;;;;;0.25;0.25;;;;;18.52;68.52;101604.50;5077884;28;45369;-76
2021/09/20 10:19:54;;;;;;;;;1.50;0.75;;;;;18.40;68.67;101595.00;5078913;28;44825;-75
2021/09/20 10:22:21;;;;;;;;;1.00;1.00;;;;;18.20;68.65;101564.44;5063745;28;45228;-79
2021/09/20 10:24:51;;;;;;;;;0.00;0.00;;;;;18.36;69.03;101602.94;5082159;28;45599;-80
2021/09/20 10:27:21;;;;;;;;;0.00;0.00;;;;;18.37;68.93;101595.88;5064654;28;45114;-77
2021/09/20 10:29:56;;;;;;;;;0.00;0.00;;;;;18.29;68.87;101587.19;5082036;28;45233;-77
2021/09/20 10:32:26;;;;;;;;;0.00;0.00;;;;;18.20;69.06;101574.97;5062539;28;45406;-76
2021/09/20 10:34:51;;;;;;;;;0.00;0.00;;;;;18.21;69.17;101579.34;5061569;28;46172;-76
2021/09/20 10:37:24;;;;;;;;;0.75;0.75;;;;;18.33;69.02;101599.44;5061063;28;44707;-76
2021/09/20 10:40:00;;;;;;;;;1.00;0.50;;;;;18.31;69.30;101590.66;5087295;28;44690;-77
2021/09/20 10:42:46;;;;;;;;;2.00;2.00;;;;;18.49;68.84;101608.06;5101159;28;44667;-76
2021/09/20 10:45:35;;;;;;;;;0.00;0.00;;;;;18.51;68.98;101605.41;5099597;28;46077;-75
2021/09/20 10:48:28;;;;;;;;;0.00;0.00;;;;;18.52;68.45;101599.22;5099360;28;45149;-76
2021/09/20 10:50:57;;;;;;;;;1.75;0.00;;;;;18.45;68.50;101579.97;5061163;28;45171;-76
2021/09/20 10:53:32;;;;;;;;;0.75;0.00;;;;;18.77;68.48;101605.09;5062137;28;44848;-75
2021/09/20 10:56:04;;;;;;;;;1.00;1.00;;;;;18.71;68.16;101613.97;5081942;28;45181;-77
2021/09/20 10:58:39;;;;;;;;;0.50;0.00;;;;;18.67;68.06;101603.47;5080732;28;45153;-78
2021/09/20 11:01:10;;;;;;;;;0.00;0.00;;;;;18.74;68.44;101600.75;5081749;28;45205;-78
2021/09/20 11:03:49;;;;;;;;;0.00;0.00;;;;;18.78;68.60;101601.59;5062755;28;45439;-77
2021/09/20 11:06:24;;;;;;;;;0.00;0.00;;;;;18.75;68.57;101601.63;5080851;28;46147;-77
2021/09/20 11:09:12;;;;;;;;;0.00;0.00;;;;;18.79;68.31;101605.97;5073345;28;45252;-76
2021/09/20 11:11:41;;;;;;;;;0.00;0.00;;;;;18.74;68.64;101610.41;5079410;28;46408;-78
2021/09/20 11:14:10;;;;;;;;;1.00;0.00;;;;;18.66;68.07;101592.06;5071006;28;45043;-77
2021/09/20 11:16:56;;;;;;;;;0.25;0.25;;;;;18.81;68.40;101601.53;5034825;28;47180;-77
2021/09/20 11:19:24;;;;;;;;;0.00;0.00;;;;;18.88;67.70;101610.25;5046060;28;45535;-77
2021/09/20 11:22:10;;;;;;;;;0.00;0.00;;;;;18.92;67.32;101611.97;5025337;28;45517;-78
2021/09/20 11:24:37;;;;;;;;;1.50;0.25;;;;;18.93;67.23;101607.56;5048663;28;45339;-76